sensor_id;sensor_type;location;lat;lon;timestamp;P1;durP1;ratioP1;P2;durP2;ratioP2
36137;SDS011;67787;50.074;21.904;2024-02-28T00:00:32;48.00;;;24.10;;
36137;SDS011;67787;50.074;21.904;2024-02-28T00:03:18;46.00;;;23.40;;
36137;SDS011;67787;50.074;21.904;2024-02-28T00:05:45;42.40;;;22.10;;
36137;SDS011;67787;50.074;21.904;2024-02-28T00:08:12;40.50;;;21.30;;
36137;SDS011;67787;50.074;21.904;2024-02-28T00:10:38;42.40;;;21.50;;
36137;SDS011;67787;50.074;21.904;2024-02-28T00:15:31;36.90;;;19.60;;
36137;SDS011;67787;50.074;21.904;2024-02-28T00:17:57;36.60;;;20.20;;
36137;SDS011;67787;50.074;21.904;2024-02-28T00:20:24;41.50;;;21.10;;
36137;SDS011;67787;50.074;21.904;2024-02-28T00:22:53;37.60;;;20.70;;
36137;SDS011;67787;50.074;21.904;2024-02-28T00:25:20;40.80;;;21.20;;
36137;SDS011;67787;50.074;21.904;2024-02-28T00:27:46;41.80;;;21.30;;
36137;SDS011;67787;50.074;21.904;2024-02-28T00:30:13;41.50;;;22.00;;
36137;SDS011;67787;50.074;21.904;2024-02-28T00:32:39;38.50;;;21.00;;
36137;SDS011;67787;50.074;21.904;2024-02-28T00:35:06;44.50;;;24.50;;
36137;SDS011;67787;50.074;21.904;2024-02-28T00:37:33;40.30;;;21.90;;
36137;SDS011;67787;50.074;21.904;2024-02-28T00:42:26;42.00;;;20.60;;
36137;SDS011;67787;50.074;21.904;2024-02-28T00:44:53;43.60;;;23.20;;
36137;SDS011;67787;50.074;21.904;2024-02-28T00:47:20;39.40;;;20.30;;
36137;SDS011;67787;50.074;21.904;2024-02-28T00:49:46;33.50;;;20.10;;
36137;SDS011;67787;50.074;21.904;2024-02-28T00:52:13;38.50;;;21.60;;
36137;SDS011;67787;50.074;21.904;2024-02-28T00:54:40;39.20;;;21.10;;
36137;SDS011;67787;50.074;21.904;2024-02-28T00:57:06;37.20;;;19.20;;
36137;SDS011;67787;50.074;21.904;2024-02-28T00:59:32;37.50;;;19.30;;
36137;SDS011;67787;50.074;21.904;2024-02-28T01:01:59;41.10;;;21.00;;
36137;SDS011;67787;50.074;21.904;2024-02-28T01:04:25;35.40;;;19.90;;
36137;SDS011;67787;50.074;21.904;2024-02-28T01:06:52;36.60;;;20.10;;
36137;SDS011;67787;50.074;21.904;2024-02-28T01:09:19;39.40;;;20.70;;
36137;SDS011;67787;50.074;21.904;2024-02-28T01:11:45;34.80;;;19.20;;
36137;SDS011;67787;50.074;21.904;2024-02-28T01:14:12;32.90;;;19.20;;
36137;SDS011;67787;50.074;21.904;2024-02-28T01:16:38;37.10;;;20.30;;
36137;SDS011;67787;50.074;21.904;2024-02-28T01:21:31;32.70;;;19.20;;
36137;SDS011;67787;50.074;21.904;2024-02-28T01:23:58;36.00;;;19.00;;
36137;SDS011;67787;50.074;21.904;2024-02-28T01:28:50;36.30;;;19.30;;
36137;SDS011;67787;50.074;21.904;2024-02-28T01:33:43;34.50;;;18.30;;
36137;SDS011;67787;50.074;21.904;2024-02-28T01:36:11;35.50;;;18.80;;
36137;SDS011;67787;50.074;21.904;2024-02-28T01:38:37;35.50;;;19.30;;
36137;SDS011;67787;50.074;21.904;2024-02-28T01:43:31;34.20;;;18.00;;
36137;SDS011;67787;50.074;21.904;2024-02-28T01:46:02;37.70;;;19.70;;
36137;SDS011;67787;50.074;21.904;2024-02-28T01:48:31;37.80;;;19.80;;
36137;SDS011;67787;50.074;21.904;2024-02-28T01:50:58;36.30;;;19.70;;
36137;SDS011;67787;50.074;21.904;2024-02-28T01:55:51;33.30;;;18.10;;
36137;SDS011;67787;50.074;21.904;2024-02-28T01:58:18;33.20;;;18.30;;
36137;SDS011;67787;50.074;21.904;2024-02-28T02:00:45;35.60;;;19.60;;
36137;SDS011;67787;50.074;21.904;2024-02-28T02:03:13;34.60;;;19.10;;
36137;SDS011;67787;50.074;21.904;2024-02-28T02:05:41;36.60;;;20.20;;
36137;SDS011;67787;50.074;21.904;2024-02-28T02:08:08;34.80;;;20.10;;
36137;SDS011;67787;50.074;21.904;2024-02-28T02:10:35;33.60;;;19.20;;
36137;SDS011;67787;50.074;21.904;2024-02-28T02:15:32;30.00;;;17.70;;
36137;SDS011;67787;50.074;21.904;2024-02-28T02:17:58;34.10;;;17.40;;
36137;SDS011;67787;50.074;21.904;2024-02-28T02:20:26;29.30;;;17.00;;
36137;SDS011;67787;50.074;21.904;2024-02-28T02:22:55;33.40;;;17.80;;
36137;SDS011;67787;50.074;21.904;2024-02-28T02:25:22;34.50;;;17.70;;
36137;SDS011;67787;50.074;21.904;2024-02-28T02:27:48;35.90;;;17.80;;
36137;SDS011;67787;50.074;21.904;2024-02-28T02:30:15;33.00;;;16.40;;
36137;SDS011;67787;50.074;21.904;2024-02-28T02:32:42;30.60;;;17.50;;
36137;SDS011;67787;50.074;21.904;2024-02-28T02:35:08;33.00;;;17.40;;
36137;SDS011;67787;50.074;21.904;2024-02-28T02:40:01;27.50;;;16.10;;
36137;SDS011;67787;50.074;21.904;2024-02-28T02:42:28;32.10;;;17.60;;
36137;SDS011;67787;50.074;21.904;2024-02-28T02:47:20;31.50;;;17.50;;
36137;SDS011;67787;50.074;21.904;2024-02-28T02:49:47;30.40;;;17.30;;
36137;SDS011;67787;50.074;21.904;2024-02-28T02:54:40;31.50;;;16.30;;
36137;SDS011;67787;50.074;21.904;2024-02-28T02:59:33;31.30;;;16.80;;
36137;SDS011;67787;50.074;21.904;2024-02-28T03:04:25;26.60;;;15.40;;
36137;SDS011;67787;50.074;21.904;2024-02-28T03:09:18;30.70;;;14.30;;
36137;SDS011;67787;50.074;21.904;2024-02-28T03:11:45;31.70;;;16.90;;
36137;SDS011;67787;50.074;21.904;2024-02-28T03:16:41;34.70;;;17.50;;
36137;SDS011;67787;50.074;21.904;2024-02-28T03:19:09;30.40;;;17.10;;
36137;SDS011;67787;50.074;21.904;2024-02-28T03:21:36;33.20;;;17.50;;
36137;SDS011;67787;50.074;21.904;2024-02-28T03:24:03;29.70;;;16.70;;
36137;SDS011;67787;50.074;21.904;2024-02-28T03:26:30;28.20;;;14.60;;
36137;SDS011;67787;50.074;21.904;2024-02-28T03:31:23;25.70;;;15.90;;
36137;SDS011;67787;50.074;21.904;2024-02-28T03:36:15;28.40;;;14.10;;
36137;SDS011;67787;50.074;21.904;2024-02-28T03:38:42;25.40;;;16.00;;
36137;SDS011;67787;50.074;21.904;2024-02-28T03:41:08;29.30;;;16.20;;
36137;SDS011;67787;50.074;21.904;2024-02-28T03:43:35;31.80;;;17.50;;
36137;SDS011;67787;50.074;21.904;2024-02-28T03:48:28;30.10;;;14.80;;
36137;SDS011;67787;50.074;21.904;2024-02-28T03:53:21;29.00;;;15.20;;
36137;SDS011;67787;50.074;21.904;2024-02-28T03:58:16;27.20;;;15.20;;
36137;SDS011;67787;50.074;21.904;2024-02-28T04:00:43;32.00;;;16.60;;
36137;SDS011;67787;50.074;21.904;2024-02-28T04:03:13;31.20;;;16.40;;
36137;SDS011;67787;50.074;21.904;2024-02-28T04:05:40;29.50;;;14.90;;
36137;SDS011;67787;50.074;21.904;2024-02-28T04:08:07;29.40;;;17.40;;
36137;SDS011;67787;50.074;21.904;2024-02-28T04:12:59;30.00;;;16.10;;
36137;SDS011;67787;50.074;21.904;2024-02-28T04:15:26;27.10;;;15.30;;
36137;SDS011;67787;50.074;21.904;2024-02-28T04:17:53;31.50;;;16.40;;
36137;SDS011;67787;50.074;21.904;2024-02-28T04:20:20;29.30;;;15.70;;
36137;SDS011;67787;50.074;21.904;2024-02-28T04:22:46;27.60;;;15.50;;
36137;SDS011;67787;50.074;21.904;2024-02-28T04:25:13;26.10;;;15.40;;
36137;SDS011;67787;50.074;21.904;2024-02-28T04:27:39;25.30;;;13.00;;
36137;SDS011;67787;50.074;21.904;2024-02-28T04:30:06;21.30;;;11.50;;
36137;SDS011;67787;50.074;21.904;2024-02-28T04:32:33;21.30;;;12.40;;
36137;SDS011;67787;50.074;21.904;2024-02-28T04:35:01;26.50;;;14.80;;
36137;SDS011;67787;50.074;21.904;2024-02-28T04:37:29;23.80;;;14.00;;
36137;SDS011;67787;50.074;21.904;2024-02-28T04:39:55;21.90;;;13.50;;
36137;SDS011;67787;50.074;21.904;2024-02-28T04:42:22;22.60;;;11.70;;
36137;SDS011;67787;50.074;21.904;2024-02-28T04:44:48;20.90;;;13.20;;
36137;SDS011;67787;50.074;21.904;2024-02-28T04:49:43;25.50;;;13.70;;
36137;SDS011;67787;50.074;21.904;2024-02-28T04:52:10;26.10;;;15.30;;
36137;SDS011;67787;50.074;21.904;2024-02-28T04:54:39;28.00;;;13.60;;
36137;SDS011;67787;50.074;21.904;2024-02-28T04:57:06;22.10;;;12.90;;
36137;SDS011;67787;50.074;21.904;2024-02-28T04:59:33;23.80;;;13.30;;
36137;SDS011;67787;50.074;21.904;2024-02-28T05:01:59;23.90;;;13.20;;
36137;SDS011;67787;50.074;21.904;2024-02-28T05:04:26;26.80;;;15.00;;
36137;SDS011;67787;50.074;21.904;2024-02-28T05:06:53;26.70;;;15.00;;
36137;SDS011;67787;50.074;21.904;2024-02-28T05:09:19;25.70;;;13.60;;
36137;SDS011;67787;50.074;21.904;2024-02-28T05:11:46;24.70;;;13.60;;
36137;SDS011;67787;50.074;21.904;2024-02-28T05:16:38;21.20;;;12.00;;
36137;SDS011;67787;50.074;21.904;2024-02-28T05:19:05;22.30;;;13.30;;
36137;SDS011;67787;50.074;21.904;2024-02-28T05:21:38;21.20;;;11.40;;
36137;SDS011;67787;50.074;21.904;2024-02-28T05:24:06;19.00;;;11.30;;
36137;SDS011;67787;50.074;21.904;2024-02-28T05:26:37;15.50;;;9.30;;
36137;SDS011;67787;50.074;21.904;2024-02-28T05:29:04;16.50;;;8.90;;
36137;SDS011;67787;50.074;21.904;2024-02-28T05:31:32;13.70;;;7.70;;
36137;SDS011;67787;50.074;21.904;2024-02-28T05:33:59;18.60;;;9.70;;
36137;SDS011;67787;50.074;21.904;2024-02-28T05:36:28;17.30;;;9.10;;
36137;SDS011;67787;50.074;21.904;2024-02-28T05:38:57;20.10;;;9.40;;
36137;SDS011;67787;50.074;21.904;2024-02-28T05:41:24;16.60;;;7.80;;
36137;SDS011;67787;50.074;21.904;2024-02-28T05:43:51;14.10;;;7.90;;
36137;SDS011;67787;50.074;21.904;2024-02-28T05:46:18;12.90;;;7.00;;
36137;SDS011;67787;50.074;21.904;2024-02-28T05:48:45;14.90;;;8.00;;
36137;SDS011;67787;50.074;21.904;2024-02-28T05:51:12;13.10;;;7.60;;
36137;SDS011;67787;50.074;21.904;2024-02-28T05:53:40;11.40;;;6.70;;
36137;SDS011;67787;50.074;21.904;2024-02-28T05:56:07;15.00;;;7.50;;
36137;SDS011;67787;50.074;21.904;2024-02-28T05:58:41;10.10;;;6.30;;
36137;SDS011;67787;50.074;21.904;2024-02-28T06:01:11;13.40;;;7.20;;
36137;SDS011;67787;50.074;21.904;2024-02-28T06:03:39;11.30;;;6.00;;
36137;SDS011;67787;50.074;21.904;2024-02-28T06:06:05;11.60;;;6.50;;
36137;SDS011;67787;50.074;21.904;2024-02-28T06:08:33;15.20;;;6.90;;
36137;SDS011;67787;50.074;21.904;2024-02-28T06:11:00;12.40;;;7.50;;
36137;SDS011;67787;50.074;21.904;2024-02-28T06:13:27;12.00;;;6.60;;
36137;SDS011;67787;50.074;21.904;2024-02-28T06:15:55;15.80;;;7.60;;
36137;SDS011;67787;50.074;21.904;2024-02-28T06:18:26;24.00;;;12.80;;
36137;SDS011;67787;50.074;21.904;2024-02-28T06:20:56;26.70;;;15.30;;
36137;SDS011;67787;50.074;21.904;2024-02-28T06:23:23;24.40;;;15.50;;
36137;SDS011;67787;50.074;21.904;2024-02-28T06:25:55;29.10;;;16.80;;
36137;SDS011;67787;50.074;21.904;2024-02-28T06:28:22;32.90;;;16.90;;
36137;SDS011;67787;50.074;21.904;2024-02-28T06:30:49;34.40;;;17.60;;
36137;SDS011;67787;50.074;21.904;2024-02-28T06:33:16;28.10;;;15.70;;
36137;SDS011;67787;50.074;21.904;2024-02-28T06:35:42;28.80;;;16.00;;
36137;SDS011;67787;50.074;21.904;2024-02-28T06:38:09;28.90;;;16.80;;
36137;SDS011;67787;50.074;21.904;2024-02-28T06:40:35;30.10;;;16.70;;
36137;SDS011;67787;50.074;21.904;2024-02-28T06:43:02;27.70;;;17.20;;
36137;SDS011;67787;50.074;21.904;2024-02-28T06:45:29;26.40;;;15.40;;
36137;SDS011;67787;50.074;21.904;2024-02-28T06:47:55;29.10;;;16.10;;
36137;SDS011;67787;50.074;21.904;2024-02-28T06:50:22;24.90;;;15.10;;
36137;SDS011;67787;50.074;21.904;2024-02-28T06:52:48;26.60;;;15.80;;
36137;SDS011;67787;50.074;21.904;2024-02-28T06:55:15;31.20;;;16.90;;
36137;SDS011;67787;50.074;21.904;2024-02-28T06:57:41;25.10;;;15.10;;
36137;SDS011;67787;50.074;21.904;2024-02-28T07:00:09;26.20;;;15.90;;
36137;SDS011;67787;50.074;21.904;2024-02-28T07:02:38;34.80;;;18.70;;
36137;SDS011;67787;50.074;21.904;2024-02-28T07:05:04;27.10;;;15.50;;
36137;SDS011;67787;50.074;21.904;2024-02-28T07:07:33;32.10;;;17.00;;
36137;SDS011;67787;50.074;21.904;2024-02-28T07:10:00;31.80;;;16.80;;
36137;SDS011;67787;50.074;21.904;2024-02-28T07:12:28;30.10;;;16.70;;
36137;SDS011;67787;50.074;21.904;2024-02-28T07:14:55;29.10;;;16.00;;
36137;SDS011;67787;50.074;21.904;2024-02-28T07:19:48;29.50;;;16.90;;
36137;SDS011;67787;50.074;21.904;2024-02-28T07:22:15;27.70;;;17.00;;
36137;SDS011;67787;50.074;21.904;2024-02-28T07:24:41;33.20;;;18.40;;
36137;SDS011;67787;50.074;21.904;2024-02-28T07:27:07;32.60;;;17.70;;
36137;SDS011;67787;50.074;21.904;2024-02-28T07:29:36;36.60;;;19.50;;
36137;SDS011;67787;50.074;21.904;2024-02-28T07:32:03;32.70;;;18.70;;
36137;SDS011;67787;50.074;21.904;2024-02-28T07:34:29;31.30;;;17.60;;
36137;SDS011;67787;50.074;21.904;2024-02-28T07:36:56;29.30;;;15.90;;
36137;SDS011;67787;50.074;21.904;2024-02-28T07:39:24;32.50;;;17.20;;
36137;SDS011;67787;50.074;21.904;2024-02-28T07:41:51;22.40;;;13.70;;
36137;SDS011;67787;50.074;21.904;2024-02-28T07:44:22;27.70;;;17.50;;
36137;SDS011;67787;50.074;21.904;2024-02-28T07:46:49;28.50;;;16.40;;
36137;SDS011;67787;50.074;21.904;2024-02-28T07:49:16;29.10;;;17.90;;
36137;SDS011;67787;50.074;21.904;2024-02-28T07:51:43;22.10;;;13.40;;
36137;SDS011;67787;50.074;21.904;2024-02-28T07:54:09;31.60;;;16.20;;
36137;SDS011;67787;50.074;21.904;2024-02-28T07:56:36;32.80;;;18.80;;
36137;SDS011;67787;50.074;21.904;2024-02-28T08:01:29;35.90;;;18.10;;
36137;SDS011;67787;50.074;21.904;2024-02-28T08:03:57;32.80;;;17.90;;
36137;SDS011;67787;50.074;21.904;2024-02-28T08:06:23;32.90;;;18.50;;
36137;SDS011;67787;50.074;21.904;2024-02-28T08:08:50;30.60;;;16.70;;
36137;SDS011;67787;50.074;21.904;2024-02-28T08:11:17;31.40;;;17.50;;
36137;SDS011;67787;50.074;21.904;2024-02-28T08:13:45;28.60;;;16.70;;
36137;SDS011;67787;50.074;21.904;2024-02-28T08:16:11;30.40;;;16.90;;
36137;SDS011;67787;50.074;21.904;2024-02-28T08:18:38;32.10;;;16.00;;
36137;SDS011;67787;50.074;21.904;2024-02-28T08:21:05;24.80;;;14.80;;
36137;SDS011;67787;50.074;21.904;2024-02-28T08:23:31;22.90;;;11.80;;
36137;SDS011;67787;50.074;21.904;2024-02-28T08:25:57;13.40;;;9.00;;
36137;SDS011;67787;50.074;21.904;2024-02-28T08:28:24;12.30;;;6.90;;
36137;SDS011;67787;50.074;21.904;2024-02-28T08:30:50;14.80;;;6.60;;
36137;SDS011;67787;50.074;21.904;2024-02-28T08:33:17;13.30;;;7.50;;
36137;SDS011;67787;50.074;21.904;2024-02-28T08:35:47;12.30;;;7.00;;
36137;SDS011;67787;50.074;21.904;2024-02-28T08:38:16;12.10;;;6.80;;
36137;SDS011;67787;50.074;21.904;2024-02-28T08:40:42;13.60;;;7.70;;
36137;SDS011;67787;50.074;21.904;2024-02-28T08:43:09;13.20;;;7.40;;
36137;SDS011;67787;50.074;21.904;2024-02-28T08:45:35;16.10;;;7.70;;
36137;SDS011;67787;50.074;21.904;2024-02-28T08:48:05;13.30;;;7.30;;
36137;SDS011;67787;50.074;21.904;2024-02-28T08:50:33;16.10;;;7.10;;
36137;SDS011;67787;50.074;21.904;2024-02-28T08:52:59;13.60;;;6.30;;
36137;SDS011;67787;50.074;21.904;2024-02-28T08:55:25;13.30;;;7.20;;
36137;SDS011;67787;50.074;21.904;2024-02-28T08:57:52;10.90;;;6.10;;
36137;SDS011;67787;50.074;21.904;2024-02-28T09:00:18;9.10;;;6.30;;
36137;SDS011;67787;50.074;21.904;2024-02-28T09:02:48;13.00;;;6.50;;
36137;SDS011;67787;50.074;21.904;2024-02-28T09:05:14;9.50;;;6.30;;
36137;SDS011;67787;50.074;21.904;2024-02-28T09:07:41;11.60;;;6.50;;
36137;SDS011;67787;50.074;21.904;2024-02-28T09:10:07;12.30;;;7.00;;
36137;SDS011;67787;50.074;21.904;2024-02-28T09:12:34;11.40;;;5.90;;
36137;SDS011;67787;50.074;21.904;2024-02-28T09:15:00;9.70;;;6.20;;
36137;SDS011;67787;50.074;21.904;2024-02-28T09:17:27;12.40;;;6.80;;
36137;SDS011;67787;50.074;21.904;2024-02-28T09:19:53;13.00;;;7.40;;
36137;SDS011;67787;50.074;21.904;2024-02-28T09:22:20;12.90;;;6.40;;
36137;SDS011;67787;50.074;21.904;2024-02-28T09:24:49;11.40;;;6.20;;
36137;SDS011;67787;50.074;21.904;2024-02-28T09:27:16;13.50;;;6.30;;
36137;SDS011;67787;50.074;21.904;2024-02-28T09:29:44;10.40;;;6.30;;
36137;SDS011;67787;50.074;21.904;2024-02-28T09:32:11;13.50;;;7.10;;
36137;SDS011;67787;50.074;21.904;2024-02-28T09:34:38;9.60;;;6.30;;
36137;SDS011;67787;50.074;21.904;2024-02-28T09:37:05;11.00;;;6.00;;
36137;SDS011;67787;50.074;21.904;2024-02-28T09:39:31;13.60;;;7.40;;
36137;SDS011;67787;50.074;21.904;2024-02-28T09:41:58;11.40;;;6.90;;
36137;SDS011;67787;50.074;21.904;2024-02-28T09:44:24;12.40;;;6.40;;
36137;SDS011;67787;50.074;21.904;2024-02-28T09:46:52;16.30;;;8.30;;
36137;SDS011;67787;50.074;21.904;2024-02-28T09:49:19;12.80;;;6.80;;
36137;SDS011;67787;50.074;21.904;2024-02-28T09:51:48;10.30;;;7.10;;
36137;SDS011;67787;50.074;21.904;2024-02-28T09:54:18;13.30;;;6.20;;
36137;SDS011;67787;50.074;21.904;2024-02-28T09:56:47;12.20;;;6.80;;
36137;SDS011;67787;50.074;21.904;2024-02-28T09:59:15;13.70;;;7.70;;
36137;SDS011;67787;50.074;21.904;2024-02-28T10:01:44;11.10;;;7.00;;
36137;SDS011;67787;50.074;21.904;2024-02-28T10:04:19;12.40;;;6.70;;
36137;SDS011;67787;50.074;21.904;2024-02-28T10:06:46;16.20;;;7.70;;
36137;SDS011;67787;50.074;21.904;2024-02-28T10:09:15;11.90;;;7.00;;
36137;SDS011;67787;50.074;21.904;2024-02-28T10:11:42;12.60;;;7.40;;
36137;SDS011;67787;50.074;21.904;2024-02-28T10:14:17;12.60;;;7.90;;
36137;SDS011;67787;50.074;21.904;2024-02-28T10:16:47;12.50;;;6.90;;
36137;SDS011;67787;50.074;21.904;2024-02-28T10:19:13;9.80;;;6.70;;
36137;SDS011;67787;50.074;21.904;2024-02-28T10:21:40;12.80;;;6.90;;
36137;SDS011;67787;50.074;21.904;2024-02-28T10:24:06;17.60;;;9.20;;
36137;SDS011;67787;50.074;21.904;2024-02-28T10:26:41;16.40;;;8.60;;
36137;SDS011;67787;50.074;21.904;2024-02-28T10:29:08;12.20;;;7.70;;
36137;SDS011;67787;50.074;21.904;2024-02-28T10:31:38;11.50;;;7.00;;
36137;SDS011;67787;50.074;21.904;2024-02-28T10:34:04;13.70;;;8.10;;
36137;SDS011;67787;50.074;21.904;2024-02-28T10:36:33;12.40;;;7.60;;
36137;SDS011;67787;50.074;21.904;2024-02-28T10:39:00;15.10;;;8.80;;
36137;SDS011;67787;50.074;21.904;2024-02-28T10:41:28;13.00;;;7.20;;
36137;SDS011;67787;50.074;21.904;2024-02-28T10:43:56;14.40;;;8.30;;
36137;SDS011;67787;50.074;21.904;2024-02-28T10:46:23;14.40;;;9.10;;
36137;SDS011;67787;50.074;21.904;2024-02-28T10:49:03;14.40;;;8.50;;
36137;SDS011;67787;50.074;21.904;2024-02-28T10:51:33;13.30;;;7.50;;
36137;SDS011;67787;50.074;21.904;2024-02-28T10:54:11;11.90;;;7.40;;
36137;SDS011;67787;50.074;21.904;2024-02-28T10:56:42;12.60;;;7.80;;
36137;SDS011;67787;50.074;21.904;2024-02-28T10:59:10;14.50;;;8.10;;
36137;SDS011;67787;50.074;21.904;2024-02-28T11:03:56;13.70;;;7.00;;
36137;SDS011;67787;50.074;21.904;2024-02-28T11:06:26;13.50;;;8.40;;
36137;SDS011;67787;50.074;21.904;2024-02-28T11:09:04;13.20;;;7.40;;
36137;SDS011;67787;50.074;21.904;2024-02-28T11:11:33;14.40;;;7.80;;
36137;SDS011;67787;50.074;21.904;2024-02-28T11:14:00;15.80;;;8.30;;
36137;SDS011;67787;50.074;21.904;2024-02-28T11:16:40;13.90;;;7.90;;
36137;SDS011;67787;50.074;21.904;2024-02-28T11:19:10;12.80;;;7.60;;
36137;SDS011;67787;50.074;21.904;2024-02-28T11:21:55;10.60;;;7.00;;
36137;SDS011;67787;50.074;21.904;2024-02-28T11:24:24;13.40;;;7.50;;
36137;SDS011;67787;50.074;21.904;2024-02-28T11:26:55;12.30;;;7.00;;
36137;SDS011;67787;50.074;21.904;2024-02-28T11:29:25;13.10;;;7.40;;
36137;SDS011;67787;50.074;21.904;2024-02-28T11:31:55;13.50;;;7.20;;
36137;SDS011;67787;50.074;21.904;2024-02-28T11:34:23;10.50;;;6.80;;
36137;SDS011;67787;50.074;21.904;2024-02-28T11:36:50;13.50;;;7.70;;
36137;SDS011;67787;50.074;21.904;2024-02-28T11:39:20;13.60;;;7.90;;
36137;SDS011;67787;50.074;21.904;2024-02-28T11:41:49;12.30;;;7.50;;
36137;SDS011;67787;50.074;21.904;2024-02-28T11:44:16;11.80;;;7.20;;
36137;SDS011;67787;50.074;21.904;2024-02-28T11:46:44;17.20;;;8.60;;
36137;SDS011;67787;50.074;21.904;2024-02-28T11:49:20;14.60;;;8.10;;
36137;SDS011;67787;50.074;21.904;2024-02-28T11:51:47;13.80;;;7.70;;
36137;SDS011;67787;50.074;21.904;2024-02-28T11:54:14;18.50;;;9.10;;
36137;SDS011;67787;50.074;21.904;2024-02-28T11:56:41;15.30;;;8.30;;
36137;SDS011;67787;50.074;21.904;2024-02-28T11:59:09;13.10;;;7.80;;
36137;SDS011;67787;50.074;21.904;2024-02-28T12:01:41;42.60;;;18.40;;
36137;SDS011;67787;50.074;21.904;2024-02-28T12:04:10;29.10;;;12.60;;
36137;SDS011;67787;50.074;21.904;2024-02-28T12:06:40;16.10;;;7.90;;
36137;SDS011;67787;50.074;21.904;2024-02-28T12:09:07;13.00;;;8.20;;
36137;SDS011;67787;50.074;21.904;2024-02-28T12:11:36;14.50;;;7.70;;
36137;SDS011;67787;50.074;21.904;2024-02-28T12:14:05;12.40;;;7.80;;
36137;SDS011;67787;50.074;21.904;2024-02-28T12:16:37;14.40;;;8.50;;
36137;SDS011;67787;50.074;21.904;2024-02-28T12:19:10;14.80;;;8.50;;
36137;SDS011;67787;50.074;21.904;2024-02-28T12:21:38;14.90;;;8.40;;
36137;SDS011;67787;50.074;21.904;2024-02-28T12:24:09;17.60;;;8.80;;
36137;SDS011;67787;50.074;21.904;2024-02-28T12:26:39;11.40;;;7.10;;
36137;SDS011;67787;50.074;21.904;2024-02-28T12:29:06;15.90;;;7.90;;
36137;SDS011;67787;50.074;21.904;2024-02-28T12:31:43;11.30;;;7.40;;
36137;SDS011;67787;50.074;21.904;2024-02-28T12:34:17;19.50;;;8.80;;
36137;SDS011;67787;50.074;21.904;2024-02-28T12:36:59;16.20;;;8.80;;
36137;SDS011;67787;50.074;21.904;2024-02-28T12:39:32;13.20;;;8.60;;
36137;SDS011;67787;50.074;21.904;2024-02-28T12:42:02;16.10;;;10.30;;
36137;SDS011;67787;50.074;21.904;2024-02-28T12:44:35;134.10;;;89.10;;
36137;SDS011;67787;50.074;21.904;2024-02-28T12:47:02;254.70;;;137.70;;
36137;SDS011;67787;50.074;21.904;2024-02-28T12:49:32;126.00;;;83.40;;
36137;SDS011;67787;50.074;21.904;2024-02-28T12:51:58;187.90;;;117.20;;
36137;SDS011;67787;50.074;21.904;2024-02-28T12:54:25;83.70;;;46.70;;
36137;SDS011;67787;50.074;21.904;2024-02-28T12:56:52;206.40;;;108.50;;
36137;SDS011;67787;50.074;21.904;2024-02-28T12:59:18;94.80;;;60.10;;
36137;SDS011;67787;50.074;21.904;2024-02-28T13:01:45;59.10;;;35.00;;
36137;SDS011;67787;50.074;21.904;2024-02-28T13:04:14;49.60;;;29.00;;
36137;SDS011;67787;50.074;21.904;2024-02-28T13:06:41;27.10;;;15.60;;
36137;SDS011;67787;50.074;21.904;2024-02-28T13:09:07;21.50;;;12.00;;
36137;SDS011;67787;50.074;21.904;2024-02-28T13:11:39;15.60;;;9.50;;
36137;SDS011;67787;50.074;21.904;2024-02-28T13:14:06;15.30;;;9.40;;
36137;SDS011;67787;50.074;21.904;2024-02-28T13:16:34;13.60;;;8.60;;
36137;SDS011;67787;50.074;21.904;2024-02-28T13:19:00;15.10;;;8.00;;
36137;SDS011;67787;50.074;21.904;2024-02-28T13:21:27;15.90;;;8.80;;
36137;SDS011;67787;50.074;21.904;2024-02-28T13:23:54;18.20;;;10.20;;
36137;SDS011;67787;50.074;21.904;2024-02-28T13:26:22;13.90;;;7.30;;
36137;SDS011;67787;50.074;21.904;2024-02-28T13:28:48;14.50;;;8.30;;
36137;SDS011;67787;50.074;21.904;2024-02-28T13:31:18;13.60;;;8.00;;
36137;SDS011;67787;50.074;21.904;2024-02-28T13:33:45;17.20;;;8.10;;
36137;SDS011;67787;50.074;21.904;2024-02-28T13:36:14;14.00;;;7.70;;
36137;SDS011;67787;50.074;21.904;2024-02-28T13:38:41;15.40;;;7.50;;
36137;SDS011;67787;50.074;21.904;2024-02-28T13:41:07;16.20;;;8.40;;
36137;SDS011;67787;50.074;21.904;2024-02-28T13:43:34;14.00;;;7.90;;
36137;SDS011;67787;50.074;21.904;2024-02-28T13:46:02;13.10;;;7.70;;
36137;SDS011;67787;50.074;21.904;2024-02-28T13:48:30;13.60;;;8.20;;
36137;SDS011;67787;50.074;21.904;2024-02-28T13:50:58;16.10;;;8.00;;
36137;SDS011;67787;50.074;21.904;2024-02-28T13:53:25;17.60;;;8.90;;
36137;SDS011;67787;50.074;21.904;2024-02-28T13:55:52;14.70;;;8.80;;
36137;SDS011;67787;50.074;21.904;2024-02-28T13:58:18;16.20;;;8.70;;
36137;SDS011;67787;50.074;21.904;2024-02-28T14:00:45;23.20;;;9.60;;
36137;SDS011;67787;50.074;21.904;2024-02-28T14:03:13;18.00;;;9.90;;
36137;SDS011;67787;50.074;21.904;2024-02-28T14:05:41;17.80;;;10.00;;
36137;SDS011;67787;50.074;21.904;2024-02-28T14:08:07;16.20;;;9.70;;
36137;SDS011;67787;50.074;21.904;2024-02-28T14:10:35;18.60;;;10.10;;
36137;SDS011;67787;50.074;21.904;2024-02-28T14:13:01;16.00;;;9.30;;
36137;SDS011;67787;50.074;21.904;2024-02-28T14:15:29;16.20;;;9.10;;
36137;SDS011;67787;50.074;21.904;2024-02-28T14:17:55;16.40;;;9.40;;
36137;SDS011;67787;50.074;21.904;2024-02-28T14:20:22;16.70;;;9.00;;
36137;SDS011;67787;50.074;21.904;2024-02-28T14:22:48;21.20;;;10.50;;
36137;SDS011;67787;50.074;21.904;2024-02-28T14:25:15;18.20;;;10.80;;
36137;SDS011;67787;50.074;21.904;2024-02-28T14:27:44;14.60;;;8.40;;
36137;SDS011;67787;50.074;21.904;2024-02-28T14:30:11;19.50;;;10.90;;
36137;SDS011;67787;50.074;21.904;2024-02-28T14:32:41;17.40;;;11.20;;
36137;SDS011;67787;50.074;21.904;2024-02-28T14:35:09;16.20;;;9.00;;
36137;SDS011;67787;50.074;21.904;2024-02-28T14:37:36;16.30;;;9.80;;
36137;SDS011;67787;50.074;21.904;2024-02-28T14:40:06;16.60;;;9.60;;
36137;SDS011;67787;50.074;21.904;2024-02-28T14:42:40;18.00;;;9.70;;
36137;SDS011;67787;50.074;21.904;2024-02-28T14:45:08;16.70;;;9.60;;
36137;SDS011;67787;50.074;21.904;2024-02-28T14:47:36;18.50;;;10.30;;
36137;SDS011;67787;50.074;21.904;2024-02-28T14:50:04;18.50;;;10.70;;
36137;SDS011;67787;50.074;21.904;2024-02-28T14:52:33;18.40;;;11.30;;
36137;SDS011;67787;50.074;21.904;2024-02-28T14:55:00;20.00;;;12.10;;
36137;SDS011;67787;50.074;21.904;2024-02-28T14:57:28;17.60;;;10.50;;
36137;SDS011;67787;50.074;21.904;2024-02-28T14:59:57;17.60;;;9.70;;
36137;SDS011;67787;50.074;21.904;2024-02-28T15:02:24;14.00;;;10.10;;
36137;SDS011;67787;50.074;21.904;2024-02-28T15:04:50;14.30;;;9.90;;
36137;SDS011;67787;50.074;21.904;2024-02-28T15:07:17;16.60;;;9.90;;
36137;SDS011;67787;50.074;21.904;2024-02-28T15:09:44;16.90;;;9.70;;
36137;SDS011;67787;50.074;21.904;2024-02-28T15:12:10;19.90;;;9.80;;
36137;SDS011;67787;50.074;21.904;2024-02-28T15:14:37;18.90;;;12.50;;
36137;SDS011;67787;50.074;21.904;2024-02-28T15:17:03;24.70;;;16.10;;
36137;SDS011;67787;50.074;21.904;2024-02-28T15:19:31;23.70;;;15.70;;